sensor_id;sensor_type;location;lat;lon;timestamp;P1;durP1;ratioP1;P2;durP2;ratioP2
48805;SDS011;34625;47.176;27.548;2024-03-02T00:00:34;6.43;;;4.65;;
48805;SDS011;34625;47.176;27.548;2024-03-02T00:03:00;9.32;;;6.72;;
48805;SDS011;34625;47.176;27.548;2024-03-02T00:05:27;11.05;;;7.07;;
48805;SDS011;34625;47.176;27.548;2024-03-02T00:07:57;12.98;;;6.22;;
48805;SDS011;34625;47.176;27.548;2024-03-02T00:10:27;11.27;;;5.65;;
48805;SDS011;34625;47.176;27.548;2024-03-02T00:13:00;10.32;;;5.85;;
48805;SDS011;34625;47.176;27.548;2024-03-02T00:17:56;11.80;;;6.78;;
48805;SDS011;34625;47.176;27.548;2024-03-02T00:20:23;14.63;;;6.85;;
48805;SDS011;34625;47.176;27.548;2024-03-02T00:22:50;16.23;;;6.82;;
48805;SDS011;34625;47.176;27.548;2024-03-02T00:25:17;12.38;;;6.88;;
48805;SDS011;34625;47.176;27.548;2024-03-02T00:27:47;10.15;;;4.63;;
48805;SDS011;34625;47.176;27.548;2024-03-02T00:33:01;11.80;;;6.55;;
48805;SDS011;34625;47.176;27.548;2024-03-02T00:35:28;13.05;;;7.63;;
48805;SDS011;34625;47.176;27.548;2024-03-02T00:37:54;13.93;;;7.00;;
48805;SDS011;34625;47.176;27.548;2024-03-02T00:40:21;14.05;;;7.13;;
48805;SDS011;34625;47.176;27.548;2024-03-02T00:42:47;13.15;;;6.85;;
48805;SDS011;34625;47.176;27.548;2024-03-02T00:45:14;11.45;;;7.47;;
48805;SDS011;34625;47.176;27.548;2024-03-02T00:47:40;10.50;;;5.45;;
48805;SDS011;34625;47.176;27.548;2024-03-02T00:50:07;9.30;;;4.60;;
48805;SDS011;34625;47.176;27.548;2024-03-02T00:52:34;7.28;;;4.30;;
48805;SDS011;34625;47.176;27.548;2024-03-02T00:55:01;7.80;;;4.80;;
48805;SDS011;34625;47.176;27.548;2024-03-02T00:57:27;16.58;;;6.85;;
48805;SDS011;34625;47.176;27.548;2024-03-02T00:59:57;11.02;;;6.13;;
48805;SDS011;34625;47.176;27.548;2024-03-02T01:02:24;13.50;;;6.85;;
48805;SDS011;34625;47.176;27.548;2024-03-02T01:04:50;13.63;;;7.75;;
48805;SDS011;34625;47.176;27.548;2024-03-02T01:07:17;11.82;;;7.63;;
48805;SDS011;34625;47.176;27.548;2024-03-02T01:09:43;12.80;;;7.85;;
48805;SDS011;34625;47.176;27.548;2024-03-02T01:12:10;14.15;;;7.43;;
48805;SDS011;34625;47.176;27.548;2024-03-02T01:14:36;14.85;;;7.35;;
48805;SDS011;34625;47.176;27.548;2024-03-02T01:17:03;13.50;;;7.65;;
48805;SDS011;34625;47.176;27.548;2024-03-02T01:19:30;16.73;;;6.40;;
48805;SDS011;34625;47.176;27.548;2024-03-02T01:21:56;14.68;;;7.50;;
48805;SDS011;34625;47.176;27.548;2024-03-02T01:24:23;15.73;;;7.65;;
48805;SDS011;34625;47.176;27.548;2024-03-02T01:26:49;16.42;;;8.15;;
48805;SDS011;34625;47.176;27.548;2024-03-02T01:29:16;14.00;;;7.40;;
48805;SDS011;34625;47.176;27.548;2024-03-02T01:31:43;12.98;;;7.78;;
48805;SDS011;34625;47.176;27.548;2024-03-02T01:34:10;13.23;;;8.23;;
48805;SDS011;34625;47.176;27.548;2024-03-02T01:36:38;10.35;;;7.22;;
48805;SDS011;34625;47.176;27.548;2024-03-02T01:39:04;13.38;;;7.90;;
48805;SDS011;34625;47.176;27.548;2024-03-02T01:41:34;10.05;;;7.03;;
48805;SDS011;34625;47.176;27.548;2024-03-02T01:44:01;12.77;;;7.25;;
48805;SDS011;34625;47.176;27.548;2024-03-02T01:46:27;14.32;;;7.75;;
48805;SDS011;34625;47.176;27.548;2024-03-02T01:48:54;10.93;;;7.00;;
48805;SDS011;34625;47.176;27.548;2024-03-02T01:51:21;14.27;;;7.55;;
48805;SDS011;34625;47.176;27.548;2024-03-02T01:53:47;13.65;;;7.45;;
48805;SDS011;34625;47.176;27.548;2024-03-02T01:56:14;14.98;;;7.03;;
48805;SDS011;34625;47.176;27.548;2024-03-02T01:58:40;18.63;;;7.38;;
48805;SDS011;34625;47.176;27.548;2024-03-02T02:01:08;12.32;;;7.53;;
48805;SDS011;34625;47.176;27.548;2024-03-02T02:03:35;12.82;;;7.60;;
48805;SDS011;34625;47.176;27.548;2024-03-02T02:06:02;12.70;;;8.38;;
48805;SDS011;34625;47.176;27.548;2024-03-02T02:08:28;19.42;;;7.53;;
48805;SDS011;34625;47.176;27.548;2024-03-02T02:10:55;11.85;;;7.57;;
48805;SDS011;34625;47.176;27.548;2024-03-02T02:13:21;13.10;;;6.60;;
48805;SDS011;34625;47.176;27.548;2024-03-02T02:15:48;16.08;;;7.95;;
48805;SDS011;34625;47.176;27.548;2024-03-02T02:18:14;16.38;;;7.68;;
48805;SDS011;34625;47.176;27.548;2024-03-02T02:20:41;12.00;;;7.10;;
48805;SDS011;34625;47.176;27.548;2024-03-02T02:23:07;16.50;;;7.40;;
48805;SDS011;34625;47.176;27.548;2024-03-02T02:25:35;10.73;;;6.95;;
48805;SDS011;34625;47.176;27.548;2024-03-02T02:28:01;13.35;;;7.82;;
48805;SDS011;34625;47.176;27.548;2024-03-02T02:30:28;12.77;;;7.35;;
48805;SDS011;34625;47.176;27.548;2024-03-02T02:32:55;14.80;;;7.65;;
48805;SDS011;34625;47.176;27.548;2024-03-02T02:35:22;14.45;;;7.75;;
48805;SDS011;34625;47.176;27.548;2024-03-02T02:37:52;13.65;;;8.45;;
48805;SDS011;34625;47.176;27.548;2024-03-02T02:40:18;15.68;;;8.00;;
48805;SDS011;34625;47.176;27.548;2024-03-02T02:42:45;11.43;;;6.82;;
48805;SDS011;34625;47.176;27.548;2024-03-02T02:45:12;12.35;;;7.03;;
48805;SDS011;34625;47.176;27.548;2024-03-02T02:47:40;12.38;;;7.78;;
48805;SDS011;34625;47.176;27.548;2024-03-02T02:50:07;12.13;;;7.97;;
48805;SDS011;34625;47.176;27.548;2024-03-02T02:52:34;12.77;;;7.20;;
48805;SDS011;34625;47.176;27.548;2024-03-02T02:55:05;11.13;;;6.93;;
48805;SDS011;34625;47.176;27.548;2024-03-02T02:57:32;13.85;;;8.27;;
48805;SDS011;34625;47.176;27.548;2024-03-02T03:00:04;11.50;;;6.75;;
48805;SDS011;34625;47.176;27.548;2024-03-02T03:02:38;11.80;;;7.60;;
48805;SDS011;34625;47.176;27.548;2024-03-02T03:05:05;12.20;;;7.60;;
48805;SDS011;34625;47.176;27.548;2024-03-02T03:07:32;11.07;;;7.68;;
48805;SDS011;34625;47.176;27.548;2024-03-02T03:09:59;11.15;;;6.85;;
48805;SDS011;34625;47.176;27.548;2024-03-02T03:12:26;13.43;;;7.30;;
48805;SDS011;34625;47.176;27.548;2024-03-02T03:14:52;14.60;;;8.02;;
48805;SDS011;34625;47.176;27.548;2024-03-02T03:17:19;12.23;;;7.20;;
48805;SDS011;34625;47.176;27.548;2024-03-02T03:19:45;14.10;;;7.63;;
48805;SDS011;34625;47.176;27.548;2024-03-02T03:22:12;14.40;;;7.60;;
48805;SDS011;34625;47.176;27.548;2024-03-02T03:24:38;12.88;;;8.07;;
48805;SDS011;34625;47.176;27.548;2024-03-02T03:27:05;14.27;;;7.90;;
48805;SDS011;34625;47.176;27.548;2024-03-02T03:29:32;13.32;;;8.07;;
48805;SDS011;34625;47.176;27.548;2024-03-02T03:31:58;15.02;;;7.72;;
48805;SDS011;34625;47.176;27.548;2024-03-02T03:34:24;13.38;;;7.47;;
48805;SDS011;34625;47.176;27.548;2024-03-02T03:36:52;13.73;;;7.90;;
48805;SDS011;34625;47.176;27.548;2024-03-02T03:39:19;12.93;;;7.35;;
48805;SDS011;34625;47.176;27.548;2024-03-02T03:41:45;12.05;;;7.40;;
48805;SDS011;34625;47.176;27.548;2024-03-02T03:44:12;11.82;;;7.25;;
48805;SDS011;34625;47.176;27.548;2024-03-02T03:46:38;16.23;;;7.55;;
48805;SDS011;34625;47.176;27.548;2024-03-02T03:49:05;14.88;;;7.13;;
48805;SDS011;34625;47.176;27.548;2024-03-02T03:51:31;12.68;;;7.28;;
48805;SDS011;34625;47.176;27.548;2024-03-02T03:53:58;10.32;;;7.13;;
48805;SDS011;34625;47.176;27.548;2024-03-02T03:56:25;12.85;;;6.45;;
48805;SDS011;34625;47.176;27.548;2024-03-02T03:58:51;9.27;;;5.88;;
48805;SDS011;34625;47.176;27.548;2024-03-02T04:01:18;11.90;;;6.32;;
48805;SDS011;34625;47.176;27.548;2024-03-02T04:03:44;8.75;;;6.57;;
48805;SDS011;34625;47.176;27.548;2024-03-02T04:06:11;15.38;;;6.53;;
48805;SDS011;34625;47.176;27.548;2024-03-02T04:08:39;10.13;;;5.88;;
48805;SDS011;34625;47.176;27.548;2024-03-02T04:11:05;11.88;;;6.15;;
48805;SDS011;34625;47.176;27.548;2024-03-02T04:13:33;10.50;;;6.22;;
48805;SDS011;34625;47.176;27.548;2024-03-02T04:15:59;11.35;;;6.85;;
48805;SDS011;34625;47.176;27.548;2024-03-02T04:18:26;12.70;;;6.43;;
48805;SDS011;34625;47.176;27.548;2024-03-02T04:20:52;10.40;;;6.55;;
48805;SDS011;34625;47.176;27.548;2024-03-02T04:23:18;13.85;;;7.18;;
48805;SDS011;34625;47.176;27.548;2024-03-02T04:25:45;16.67;;;7.97;;
48805;SDS011;34625;47.176;27.548;2024-03-02T04:28:11;18.83;;;8.55;;
48805;SDS011;34625;47.176;27.548;2024-03-02T04:30:38;12.93;;;7.15;;
48805;SDS011;34625;47.176;27.548;2024-03-02T04:33:04;14.45;;;7.20;;
48805;SDS011;34625;47.176;27.548;2024-03-02T04:35:32;15.70;;;6.93;;
48805;SDS011;34625;47.176;27.548;2024-03-02T04:37:59;14.95;;;6.63;;
48805;SDS011;34625;47.176;27.548;2024-03-02T04:40:25;16.52;;;7.05;;
48805;SDS011;34625;47.176;27.548;2024-03-02T04:42:52;11.27;;;7.05;;
48805;SDS011;34625;47.176;27.548;2024-03-02T04:45:18;13.73;;;8.07;;
48805;SDS011;34625;47.176;27.548;2024-03-02T04:47:45;12.15;;;6.88;;
48805;SDS011;34625;47.176;27.548;2024-03-02T04:50:11;7.65;;;4.55;;
48805;SDS011;34625;47.176;27.548;2024-03-02T04:52:37;11.02;;;7.20;;
48805;SDS011;34625;47.176;27.548;2024-03-02T04:55:04;16.55;;;6.82;;
48805;SDS011;34625;47.176;27.548;2024-03-02T04:57:49;12.48;;;7.55;;
48805;SDS011;34625;47.176;27.548;2024-03-02T05:00:16;12.63;;;7.57;;
48805;SDS011;34625;47.176;27.548;2024-03-02T05:02:42;15.68;;;7.30;;
48805;SDS011;34625;47.176;27.548;2024-03-02T05:05:09;12.48;;;7.25;;
48805;SDS011;34625;47.176;27.548;2024-03-02T05:07:35;12.55;;;7.50;;
48805;SDS011;34625;47.176;27.548;2024-03-02T05:10:02;14.10;;;7.28;;
48805;SDS011;34625;47.176;27.548;2024-03-02T05:12:28;11.95;;;7.47;;
48805;SDS011;34625;47.176;27.548;2024-03-02T05:15:10;16.55;;;7.93;;
48805;SDS011;34625;47.176;27.548;2024-03-02T05:17:37;12.13;;;8.05;;
48805;SDS011;34625;47.176;27.548;2024-03-02T05:20:04;18.05;;;8.07;;
48805;SDS011;34625;47.176;27.548;2024-03-02T05:22:31;22.10;;;8.70;;
48805;SDS011;34625;47.176;27.548;2024-03-02T05:24:59;16.27;;;8.93;;
48805;SDS011;34625;47.176;27.548;2024-03-02T05:27:28;17.58;;;9.38;;
48805;SDS011;34625;47.176;27.548;2024-03-02T05:29:55;23.55;;;9.95;;
48805;SDS011;34625;47.176;27.548;2024-03-02T05:32:23;26.83;;;11.63;;
48805;SDS011;34625;47.176;27.548;2024-03-02T05:34:50;26.73;;;11.43;;
48805;SDS011;34625;47.176;27.548;2024-03-02T05:37:17;18.20;;;10.35;;
48805;SDS011;34625;47.176;27.548;2024-03-02T05:39:46;14.88;;;9.88;;
48805;SDS011;34625;47.176;27.548;2024-03-02T05:42:12;21.02;;;9.98;;
48805;SDS011;34625;47.176;27.548;2024-03-02T05:44:39;19.08;;;8.95;;
48805;SDS011;34625;47.176;27.548;2024-03-02T05:47:06;15.70;;;8.80;;
48805;SDS011;34625;47.176;27.548;2024-03-02T05:49:34;13.88;;;7.95;;
48805;SDS011;34625;47.176;27.548;2024-03-02T05:52:01;16.85;;;7.78;;
48805;SDS011;34625;47.176;27.548;2024-03-02T05:54:28;16.88;;;7.40;;
48805;SDS011;34625;47.176;27.548;2024-03-02T05:56:54;10.07;;;6.95;;
48805;SDS011;34625;47.176;27.548;2024-03-02T05:59:21;15.55;;;7.13;;
48805;SDS011;34625;47.176;27.548;2024-03-02T06:01:48;12.05;;;7.60;;
48805;SDS011;34625;47.176;27.548;2024-03-02T06:04:17;18.77;;;8.63;;
48805;SDS011;34625;47.176;27.548;2024-03-02T06:06:44;28.13;;;10.32;;
48805;SDS011;34625;47.176;27.548;2024-03-02T06:09:10;27.35;;;9.82;;
48805;SDS011;34625;47.176;27.548;2024-03-02T06:11:41;14.60;;;8.80;;
48805;SDS011;34625;47.176;27.548;2024-03-02T06:14:08;19.17;;;9.05;;
48805;SDS011;34625;47.176;27.548;2024-03-02T06:16:34;17.98;;;8.50;;
48805;SDS011;34625;47.176;27.548;2024-03-02T06:19:01;14.48;;;8.55;;
48805;SDS011;34625;47.176;27.548;2024-03-02T06:21:28;12.52;;;8.07;;
48805;SDS011;34625;47.176;27.548;2024-03-02T06:23:54;15.68;;;7.60;;
48805;SDS011;34625;47.176;27.548;2024-03-02T06:26:22;2.35;;;2.03;;
48805;SDS011;34625;47.176;27.548;2024-03-02T06:28:48;3.40;;;2.33;;
48805;SDS011;34625;47.176;27.548;2024-03-02T06:31:14;5.32;;;2.90;;
48805;SDS011;34625;47.176;27.548;2024-03-02T06:33:41;4.88;;;3.00;;
48805;SDS011;34625;47.176;27.548;2024-03-02T06:36:08;5.45;;;3.83;;
48805;SDS011;34625;47.176;27.548;2024-03-02T06:38:35;6.25;;;4.13;;
48805;SDS011;34625;47.176;27.548;2024-03-02T06:41:01;5.03;;;3.83;;
48805;SDS011;34625;47.176;27.548;2024-03-02T06:43:27;6.15;;;5.45;;
48805;SDS011;34625;47.176;27.548;2024-03-02T06:45:54;12.65;;;10.85;;
48805;SDS011;34625;47.176;27.548;2024-03-02T06:48:21;18.80;;;15.07;;
48805;SDS011;34625;47.176;27.548;2024-03-02T06:50:47;7.90;;;5.70;;
48805;SDS011;34625;47.176;27.548;2024-03-02T06:53:14;5.22;;;4.40;;
48805;SDS011;34625;47.176;27.548;2024-03-02T06:55:43;18.35;;;8.77;;
48805;SDS011;34625;47.176;27.548;2024-03-02T06:58:13;15.77;;;7.22;;
48805;SDS011;34625;47.176;27.548;2024-03-02T07:03:10;12.10;;;7.88;;
48805;SDS011;34625;47.176;27.548;2024-03-02T07:05:37;10.68;;;6.68;;
48805;SDS011;34625;47.176;27.548;2024-03-02T07:08:04;19.25;;;9.77;;
48805;SDS011;34625;47.176;27.548;2024-03-02T07:10:31;16.80;;;8.32;;
48805;SDS011;34625;47.176;27.548;2024-03-02T07:12:57;18.83;;;8.00;;
48805;SDS011;34625;47.176;27.548;2024-03-02T07:15:24;24.77;;;8.93;;
48805;SDS011;34625;47.176;27.548;2024-03-02T07:17:53;31.42;;;9.98;;
48805;SDS011;34625;47.176;27.548;2024-03-02T07:20:19;35.20;;;10.18;;
48805;SDS011;34625;47.176;27.548;2024-03-02T07:22:46;32.78;;;10.23;;
48805;SDS011;34625;47.176;27.548;2024-03-02T07:25:12;18.73;;;7.28;;
48805;SDS011;34625;47.176;27.548;2024-03-02T07:27:39;22.70;;;8.90;;
48805;SDS011;34625;47.176;27.548;2024-03-02T07:30:06;31.10;;;9.82;;
48805;SDS011;34625;47.176;27.548;2024-03-02T07:32:33;35.22;;;13.52;;
48805;SDS011;34625;47.176;27.548;2024-03-02T07:34:59;54.83;;;23.45;;
48805;SDS011;34625;47.176;27.548;2024-03-02T07:37:26;39.70;;;13.75;;
48805;SDS011;34625;47.176;27.548;2024-03-02T07:39:53;33.00;;;15.98;;
48805;SDS011;34625;47.176;27.548;2024-03-02T07:42:20;37.88;;;14.18;;
48805;SDS011;34625;47.176;27.548;2024-03-02T07:44:46;45.78;;;17.73;;
48805;SDS011;34625;47.176;27.548;2024-03-02T07:47:12;35.58;;;11.95;;
48805;SDS011;34625;47.176;27.548;2024-03-02T07:49:39;26.27;;;10.15;;
48805;SDS011;34625;47.176;27.548;2024-03-02T07:52:06;39.42;;;13.30;;
48805;SDS011;34625;47.176;27.548;2024-03-02T07:54:33;50.05;;;13.45;;
48805;SDS011;34625;47.176;27.548;2024-03-02T07:57:00;52.90;;;13.93;;
48805;SDS011;34625;47.176;27.548;2024-03-02T07:59:26;50.45;;;17.23;;
48805;SDS011;34625;47.176;27.548;2024-03-02T08:01:53;49.58;;;14.75;;
48805;SDS011;34625;47.176;27.548;2024-03-02T08:04:20;22.27;;;8.27;;
48805;SDS011;34625;47.176;27.548;2024-03-02T08:06:47;28.88;;;9.98;;
48805;SDS011;34625;47.176;27.548;2024-03-02T08:09:13;48.22;;;16.08;;
48805;SDS011;34625;47.176;27.548;2024-03-02T08:11:40;57.72;;;21.30;;
48805;SDS011;34625;47.176;27.548;2024-03-02T08:14:06;37.47;;;15.60;;
48805;SDS011;34625;47.176;27.548;2024-03-02T08:16:32;40.42;;;16.13;;
48805;SDS011;34625;47.176;27.548;2024-03-02T08:18:59;46.33;;;13.40;;
48805;SDS011;34625;47.176;27.548;2024-03-02T08:21:26;62.95;;;19.92;;
48805;SDS011;34625;47.176;27.548;2024-03-02T08:23:56;30.33;;;11.55;;
48805;SDS011;34625;47.176;27.548;2024-03-02T08:26:23;58.13;;;19.77;;
48805;SDS011;34625;47.176;27.548;2024-03-02T08:28:50;59.30;;;19.05;;
48805;SDS011;34625;47.176;27.548;2024-03-02T08:31:16;60.35;;;19.73;;
48805;SDS011;34625;47.176;27.548;2024-03-02T08:33:42;28.73;;;10.90;;
48805;SDS011;34625;47.176;27.548;2024-03-02T08:36:09;26.02;;;9.48;;
48805;SDS011;34625;47.176;27.548;2024-03-02T08:38:35;16.85;;;8.32;;
48805;SDS011;34625;47.176;27.548;2024-03-02T08:41:02;15.32;;;8.70;;
48805;SDS011;34625;47.176;27.548;2024-03-02T08:43:29;17.40;;;7.05;;
48805;SDS011;34625;47.176;27.548;2024-03-02T08:45:55;20.27;;;10.40;;
48805;SDS011;34625;47.176;27.548;2024-03-02T08:48:22;20.40;;;11.95;;
48805;SDS011;34625;47.176;27.548;2024-03-02T08:50:48;16.35;;;9.68;;
48805;SDS011;34625;47.176;27.548;2024-03-02T08:53:15;14.23;;;7.70;;
48805;SDS011;34625;47.176;27.548;2024-03-02T08:55:45;16.42;;;9.35;;
48805;SDS011;34625;47.176;27.548;2024-03-02T08:58:12;25.45;;;13.15;;
48805;SDS011;34625;47.176;27.548;2024-03-02T09:00:38;17.55;;;10.02;;
48805;SDS011;34625;47.176;27.548;2024-03-02T09:03:05;17.27;;;9.90;;
48805;SDS011;34625;47.176;27.548;2024-03-02T09:05:31;16.38;;;7.75;;
48805;SDS011;34625;47.176;27.548;2024-03-02T09:07:58;12.05;;;8.25;;
48805;SDS011;34625;47.176;27.548;2024-03-02T09:10:24;23.35;;;10.68;;
48805;SDS011;34625;47.176;27.548;2024-03-02T09:12:51;18.23;;;9.43;;
48805;SDS011;34625;47.176;27.548;2024-03-02T09:15:17;16.13;;;9.43;;
48805;SDS011;34625;47.176;27.548;2024-03-02T09:17:44;13.48;;;7.47;;
48805;SDS011;34625;47.176;27.548;2024-03-02T09:20:10;20.52;;;8.65;;
48805;SDS011;34625;47.176;27.548;2024-03-02T09:22:37;13.68;;;8.00;;
48805;SDS011;34625;47.176;27.548;2024-03-02T09:25:03;14.32;;;9.02;;
48805;SDS011;34625;47.176;27.548;2024-03-02T09:27:30;15.60;;;7.85;;
48805;SDS011;34625;47.176;27.548;2024-03-02T09:29:56;19.80;;;7.93;;
48805;SDS011;34625;47.176;27.548;2024-03-02T09:32:22;19.00;;;9.05;;
48805;SDS011;34625;47.176;27.548;2024-03-02T09:34:49;18.52;;;8.73;;
48805;SDS011;34625;47.176;27.548;2024-03-02T09:37:15;19.55;;;10.25;;
48805;SDS011;34625;47.176;27.548;2024-03-02T09:39:43;19.05;;;9.43;;
48805;SDS011;34625;47.176;27.548;2024-03-02T09:42:10;12.10;;;6.78;;
48805;SDS011;34625;47.176;27.548;2024-03-02T09:44:37;14.32;;;5.20;;
48805;SDS011;34625;47.176;27.548;2024-03-02T09:47:04;11.23;;;4.25;;
48805;SDS011;34625;47.176;27.548;2024-03-02T09:49:31;9.68;;;4.38;;
48805;SDS011;34625;47.176;27.548;2024-03-02T09:51:57;9.27;;;5.03;;
48805;SDS011;34625;47.176;27.548;2024-03-02T09:54:24;14.00;;;5.53;;
48805;SDS011;34625;47.176;27.548;2024-03-02T09:56:50;17.80;;;6.75;;
48805;SDS011;34625;47.176;27.548;2024-03-02T09:59:17;13.73;;;5.50;;
48805;SDS011;34625;47.176;27.548;2024-03-02T10:01:58;13.70;;;5.20;;
48805;SDS011;34625;47.176;27.548;2024-03-02T10:04:27;18.23;;;8.80;;
48805;SDS011;34625;47.176;27.548;2024-03-02T10:09:39;14.57;;;9.43;;
48805;SDS011;34625;47.176;27.548;2024-03-02T10:12:06;18.90;;;9.02;;
48805;SDS011;34625;47.176;27.548;2024-03-02T10:14:33;17.23;;;9.23;;
48805;SDS011;34625;47.176;27.548;2024-03-02T10:17:02;12.93;;;9.23;;
48805;SDS011;34625;47.176;27.548;2024-03-02T10:19:29;21.35;;;9.60;;
48805;SDS011;34625;47.176;27.548;2024-03-02T10:22:00;25.77;;;10.38;;
48805;SDS011;34625;47.176;27.548;2024-03-02T10:24:28;19.67;;;10.30;;
48805;SDS011;34625;47.176;27.548;2024-03-02T10:27:01;22.67;;;11.48;;
48805;SDS011;34625;47.176;27.548;2024-03-02T10:29:29;17.67;;;10.90;;
48805;SDS011;34625;47.176;27.548;2024-03-02T10:31:55;17.77;;;11.75;;
48805;SDS011;34625;47.176;27.548;2024-03-02T10:34:24;15.30;;;9.55;;
48805;SDS011;34625;47.176;27.548;2024-03-02T10:36:50;18.02;;;10.63;;
48805;SDS011;34625;47.176;27.548;2024-03-02T10:39:17;17.38;;;11.07;;
48805;SDS011;34625;47.176;27.548;2024-03-02T10:41:43;16.60;;;10.32;;
48805;SDS011;34625;47.176;27.548;2024-03-02T10:44:11;18.38;;;10.27;;
48805;SDS011;34625;47.176;27.548;2024-03-02T10:46:39;23.15;;;11.68;;
48805;SDS011;34625;47.176;27.548;2024-03-02T10:49:05;22.48;;;11.20;;
48805;SDS011;34625;47.176;27.548;2024-03-02T10:51:32;19.48;;;11.00;;
48805;SDS011;34625;47.176;27.548;2024-03-02T10:54:01;20.02;;;11.70;;
48805;SDS011;34625;47.176;27.548;2024-03-02T11:01:46;25.75;;;10.82;;
48805;SDS011;34625;47.176;27.548;2024-03-02T11:04:13;20.60;;;11.50;;
48805;SDS011;34625;47.176;27.548;2024-03-02T11:06:47;16.65;;;10.43;;
48805;SDS011;34625;47.176;27.548;2024-03-02T11:09:14;22.88;;;11.48;;
48805;SDS011;34625;47.176;27.548;2024-03-02T11:11:43;22.63;;;10.93;;
48805;SDS011;34625;47.176;27.548;2024-03-02T11:14:11;16.75;;;10.75;;
48805;SDS011;34625;47.176;27.548;2024-03-02T11:16:39;20.48;;;10.63;;
48805;SDS011;34625;47.176;27.548;2024-03-02T11:19:11;20.95;;;11.15;;
48805;SDS011;34625;47.176;27.548;2024-03-02T11:21:38;21.27;;;11.07;;
48805;SDS011;34625;47.176;27.548;2024-03-02T11:26:53;12.20;;;5.72;;
48805;SDS011;34625;47.176;27.548;2024-03-02T11:32:02;16.23;;;6.75;;
48805;SDS011;34625;47.176;27.548;2024-03-02T11:34:32;13.10;;;6.93;;
48805;SDS011;34625;47.176;27.548;2024-03-02T11:36:59;11.75;;;6.38;;
48805;SDS011;34625;47.176;27.548;2024-03-02T11:39:25;13.15;;;6.93;;
48805;SDS011;34625;47.176;27.548;2024-03-02T11:41:52;9.75;;;7.20;;
48805;SDS011;34625;47.176;27.548;2024-03-02T11:44:19;10.95;;;7.25;;
48805;SDS011;34625;47.176;27.548;2024-03-02T11:46:46;12.35;;;6.90;;
48805;SDS011;34625;47.176;27.548;2024-03-02T11:52:04;15.80;;;8.10;;
48805;SDS011;34625;47.176;27.548;2024-03-02T11:54:32;16.27;;;8.70;;
48805;SDS011;34625;47.176;27.548;2024-03-02T11:57:02;11.70;;;7.78;;
48805;SDS011;34625;47.176;27.548;2024-03-02T11:59:29;13.68;;;7.95;;
48805;SDS011;34625;47.176;27.548;2024-03-02T12:01:56;13.85;;;8.40;;
48805;SDS011;34625;47.176;27.548;2024-03-02T12:04:23;12.32;;;7.70;;
48805;SDS011;34625;47.176;27.548;2024-03-02T12:06:56;19.92;;;12.60;;
48805;SDS011;34625;47.176;27.548;2024-03-02T12:09:25;25.45;;;13.48;;
48805;SDS011;34625;47.176;27.548;2024-03-02T12:12:04;24.50;;;13.18;;
48805;SDS011;34625;47.176;27.548;2024-03-02T12:14:31;21.77;;;12.98;;
48805;SDS011;34625;47.176;27.548;2024-03-02T12:16:58;22.65;;;12.02;;
48805;SDS011;34625;47.176;27.548;2024-03-02T12:19:25;25.20;;;12.60;;
48805;SDS011;34625;47.176;27.548;2024-03-02T12:21:52;26.13;;;12.10;;
48805;SDS011;34625;47.176;27.548;2024-03-02T12:24:20;24.33;;;12.90;;
48805;SDS011;34625;47.176;27.548;2024-03-02T12:26:48;24.90;;;13.20;;
48805;SDS011;34625;47.176;27.548;2024-03-02T12:29:15;20.33;;;12.27;;
48805;SDS011;34625;47.176;27.548;2024-03-02T12:31:42;20.52;;;12.63;;
48805;SDS011;34625;47.176;27.548;2024-03-02T12:34:13;20.92;;;11.75;;
48805;SDS011;34625;47.176;27.548;2024-03-02T12:36:40;24.08;;;12.20;;
48805;SDS011;34625;47.176;27.548;2024-03-02T12:39:09;22.58;;;12.80;;
48805;SDS011;34625;47.176;27.548;2024-03-02T12:41:36;25.38;;;12.68;;
48805;SDS011;34625;47.176;27.548;2024-03-02T12:44:03;22.20;;;12.43;;
48805;SDS011;34625;47.176;27.548;2024-03-02T12:46:30;23.67;;;13.07;;
48805;SDS011;34625;47.176;27.548;2024-03-02T12:48:57;21.25;;;11.45;;
48805;SDS011;34625;47.176;27.548;2024-03-02T12:51:24;21.77;;;11.27;;
48805;SDS011;34625;47.176;27.548;2024-03-02T12:53:57;21.88;;;11.52;;
48805;SDS011;34625;47.176;27.548;2024-03-02T12:56:24;20.60;;;11.45;;
48805;SDS011;34625;47.176;27.548;2024-03-02T12:58:54;19.83;;;11.35;;
48805;SDS011;34625;47.176;27.548;2024-03-02T13:01:27;22.08;;;12.15;;
48805;SDS011;34625;47.176;27.548;2024-03-02T13:03:57;20.58;;;11.52;;
48805;SDS011;34625;47.176;27.548;2024-03-02T13:06:24;24.85;;;11.35;;
48805;SDS011;34625;47.176;27.548;2024-03-02T13:08:54;19.02;;;10.95;;
48805;SDS011;34625;47.176;27.548;2024-03-02T13:11:21;24.38;;;11.63;;
48805;SDS011;34625;47.176;27.548;2024-03-02T13:13:49;23.63;;;11.23;;
48805;SDS011;34625;47.176;27.548;2024-03-02T13:16:16;20.85;;;11.98;;
48805;SDS011;34625;47.176;27.548;2024-03-02T13:18:44;21.30;;;10.95;;
48805;SDS011;34625;47.176;27.548;2024-03-02T13:21:11;20.80;;;10.95;;
48805;SDS011;34625;47.176;27.548;2024-03-02T13:23:37;17.75;;;9.75;;
48805;SDS011;34625;47.176;27.548;2024-03-02T13:26:04;23.08;;;10.60;;
48805;SDS011;34625;47.176;27.548;2024-03-02T13:28:31;18.83;;;10.43;;
48805;SDS011;34625;47.176;27.548;2024-03-02T13:30:57;16.45;;;9.57;;
48805;SDS011;34625;47.176;27.548;2024-03-02T13:33:23;15.35;;;9.18;;
48805;SDS011;34625;47.176;27.548;2024-03-02T13:35:50;15.70;;;9.23;;
48805;SDS011;34625;47.176;27.548;2024-03-02T13:38:17;14.15;;;7.63;;
48805;SDS011;34625;47.176;27.548;2024-03-02T13:40:43;18.83;;;8.32;;
48805;SDS011;34625;47.176;27.548;2024-03-02T13:43:10;13.07;;;8.25;;
48805;SDS011;34625;47.176;27.548;2024-03-02T13:45:37;16.17;;;8.98;;
48805;SDS011;34625;47.176;27.548;2024-03-02T13:48:04;19.05;;;7.82;;
48805;SDS011;34625;47.176;27.548;2024-03-02T13:50:30;16.85;;;9.20;;
48805;SDS011;34625;47.176;27.548;2024-03-02T13:52:57;17.05;;;9.43;;
48805;SDS011;34625;47.176;27.548;2024-03-02T13:55:23;19.00;;;8.82;;
48805;SDS011;34625;47.176;27.548;2024-03-02T13:57:50;15.45;;;8.75;;
48805;SDS011;34625;47.176;27.548;2024-03-02T14:00:17;17.10;;;9.93;;
48805;SDS011;34625;47.176;27.548;2024-03-02T14:02:45;16.92;;;10.57;;
48805;SDS011;34625;47.176;27.548;2024-03-02T14:05:12;16.23;;;10.52;;
48805;SDS011;34625;47.176;27.548;2024-03-02T14:07:39;18.85;;;11.35;;
48805;SDS011;34625;47.176;27.548;2024-03-02T14:10:05;20.35;;;11.23;;
48805;SDS011;34625;47.176;27.548;2024-03-02T14:12:32;17.45;;;9.25;;
48805;SDS011;34625;47.176;27.548;2024-03-02T14:14:58;15.50;;;9.88;;
48805;SDS011;34625;47.176;27.548;2024-03-02T14:17:29;16.13;;;10.00;;
48805;SDS011;34625;47.176;27.548;2024-03-02T14:19:58;17.05;;;8.80;;
48805;SDS011;34625;47.176;27.548;2024-03-02T14:22:25;20.60;;;9.85;;
48805;SDS011;34625;47.176;27.548;2024-03-02T14:24:52;21.52;;;10.05;;
48805;SDS011;34625;47.176;27.548;2024-03-02T14:27:18;17.83;;;9.30;;
48805;SDS011;34625;47.176;27.548;2024-03-02T14:29:46;17.83;;;9.55;;
48805;SDS011;34625;47.176;27.548;2024-03-02T14:32:12;17.80;;;10.15;;
48805;SDS011;34625;47.176;27.548;2024-03-02T14:34:39;19.48;;;11.18;;
48805;SDS011;34625;47.176;27.548;2024-03-02T14:37:05;21.13;;;10.70;;
48805;SDS011;34625;47.176;27.548;2024-03-02T14:39:32;26.55;;;12.02;;
48805;SDS011;34625;47.176;27.548;2024-03-02T14:42:00;12.93;;;8.35;;